sensor_id;sensor_type;location;lat;lon;timestamp;pressure;altitude;pressure_sealevel;temperature;humidity
30708;BME280;17458;48.958;8.284;2022-08-21T00:01:32;100416.78;;;18.75;62.74
30708;BME280;17458;48.958;8.284;2022-08-21T00:04:17;100421.94;;;18.63;63.09
30708;BME280;17458;48.958;8.284;2022-08-21T00:07:01;100420.84;;;18.57;63.25
30708;BME280;17458;48.958;8.284;2022-08-21T00:09:45;100423.50;;;18.55;63.63
30708;BME280;17458;48.958;8.284;2022-08-21T00:12:29;100422.59;;;18.52;63.62
30708;BME280;17458;48.958;8.284;2022-08-21T00:15:20;100419.00;;;18.54;63.55
30708;BME280;17458;48.958;8.284;2022-08-21T00:18:06;100428.50;;;18.34;63.78
30708;BME280;17458;48.958;8.284;2022-08-21T00:20:51;100426.53;;;18.27;63.56
30708;BME280;17458;48.958;8.284;2022-08-21T00:23:35;100408.31;;;18.12;64.35
30708;BME280;17458;48.958;8.284;2022-08-21T00:26:19;100413.00;;;18.21;63.94
30708;BME280;17458;48.958;8.284;2022-08-21T00:29:03;100406.66;;;18.17;64.13
30708;BME280;17458;48.958;8.284;2022-08-21T00:31:48;100414.53;;;18.08;64.68
30708;BME280;17458;48.958;8.284;2022-08-21T00:34:32;100402.88;;;18.08;64.75
30708;BME280;17458;48.958;8.284;2022-08-21T00:37:16;100408.25;;;18.08;64.65
30708;BME280;17458;48.958;8.284;2022-08-21T00:40:00;100405.53;;;18.06;64.63
30708;BME280;17458;48.958;8.284;2022-08-21T00:42:45;100406.34;;;18.02;64.75
30708;BME280;17458;48.958;8.284;2022-08-21T00:45:29;100410.75;;;18.00;64.81
30708;BME280;17458;48.958;8.284;2022-08-21T00:48:14;100405.38;;;18.00;65.13
30708;BME280;17458;48.958;8.284;2022-08-21T00:51:11;100398.09;;;17.93;65.66
30708;BME280;17458;48.958;8.284;2022-08-21T00:53:59;100405.22;;;17.91;65.55
30708;BME280;17458;48.958;8.284;2022-08-21T00:56:50;100401.44;;;17.81;65.62
30708;BME280;17458;48.958;8.284;2022-08-21T00:59:37;100395.94;;;17.77;65.73
30708;BME280;17458;48.958;8.284;2022-08-21T01:02:22;100403.81;;;17.67;66.21
30708;BME280;17458;48.958;8.284;2022-08-21T01:05:06;100399.16;;;17.62;66.34
30708;BME280;17458;48.958;8.284;2022-08-21T01:07:50;100402.53;;;17.52;66.62
30708;BME280;17458;48.958;8.284;2022-08-21T01:10:36;100401.50;;;17.47;66.87
30708;BME280;17458;48.958;8.284;2022-08-21T01:13:21;100400.59;;;17.46;66.86
30708;BME280;17458;48.958;8.284;2022-08-21T01:16:09;100397.00;;;17.46;67.26
30708;BME280;17458;48.958;8.284;2022-08-21T01:18:54;100395.16;;;17.43;67.54
30708;BME280;17458;48.958;8.284;2022-08-21T01:21:39;100395.94;;;17.38;67.71
30708;BME280;17458;48.958;8.284;2022-08-21T01:24:23;100396.75;;;17.35;67.97
30708;BME280;17458;48.958;8.284;2022-08-21T01:27:07;100388.66;;;17.33;67.86
30708;BME280;17458;48.958;8.284;2022-08-21T01:29:57;100385.84;;;17.27;68.14
30708;BME280;17458;48.958;8.284;2022-08-21T01:32:42;100396.34;;;17.18;68.98
30708;BME280;17458;48.958;8.284;2022-08-21T01:35:26;100390.91;;;17.15;69.54
30708;BME280;17458;48.958;8.284;2022-08-21T01:38:10;100384.59;;;17.13;69.30
30708;BME280;17458;48.958;8.284;2022-08-21T01:40:54;100388.34;;;17.20;69.25
30708;BME280;17458;48.958;8.284;2022-08-21T01:43:38;100388.19;;;17.12;69.19
30708;BME280;17458;48.958;8.284;2022-08-21T01:46:23;100394.38;;;17.10;69.26
30708;BME280;17458;48.958;8.284;2022-08-21T01:49:07;100397.94;;;17.09;69.31
30708;BME280;17458;48.958;8.284;2022-08-21T01:51:52;100395.38;;;17.15;69.25
30708;BME280;17458;48.958;8.284;2022-08-21T01:54:36;100397.94;;;17.09;69.45
30708;BME280;17458;48.958;8.284;2022-08-21T01:57:20;100402.31;;;17.05;69.65
30708;BME280;17458;48.958;8.284;2022-08-21T02:00:06;100393.22;;;17.00;69.87
30708;BME280;17458;48.958;8.284;2022-08-21T02:02:56;100393.16;;;16.97;69.85
30708;BME280;17458;48.958;8.284;2022-08-21T02:05:39;100389.34;;;16.87;70.39
30708;BME280;17458;48.958;8.284;2022-08-21T02:08:24;100382.91;;;16.81;70.80
30708;BME280;17458;48.958;8.284;2022-08-21T02:11:08;100384.59;;;16.77;71.15
30708;BME280;17458;48.958;8.284;2022-08-21T02:13:52;100383.63;;;16.74;71.26
30708;BME280;17458;48.958;8.284;2022-08-21T02:16:36;100377.31;;;16.72;71.01
30708;BME280;17458;48.958;8.284;2022-08-21T02:19:19;100375.53;;;16.72;70.94
30708;BME280;17458;48.958;8.284;2022-08-21T02:22:03;100372.72;;;16.66;70.80
30708;BME280;17458;48.958;8.284;2022-08-21T02:24:47;100369.06;;;16.64;70.93
30708;BME280;17458;48.958;8.284;2022-08-21T02:27:38;100369.88;;;16.61;70.91
30708;BME280;17458;48.958;8.284;2022-08-21T02:30:27;100366.13;;;16.55;71.38
30708;BME280;17458;48.958;8.284;2022-08-21T02:33:12;100368.63;;;16.49;71.28
30708;BME280;17458;48.958;8.284;2022-08-21T02:35:57;100364.91;;;16.44;71.46
30708;BME280;17458;48.958;8.284;2022-08-21T02:38:41;100360.22;;;16.35;71.63
30708;BME280;17458;48.958;8.284;2022-08-21T02:41:26;100362.25;;;16.44;71.49
30708;BME280;17458;48.958;8.284;2022-08-21T02:44:10;100364.81;;;16.39;71.64
30708;BME280;17458;48.958;8.284;2022-08-21T02:46:54;100369.19;;;16.36;71.87
30708;BME280;17458;48.958;8.284;2022-08-21T02:49:39;100368.19;;;16.32;71.92
30708;BME280;17458;48.958;8.284;2022-08-21T02:52:23;100364.56;;;16.30;72.03
30708;BME280;17458;48.958;8.284;2022-08-21T02:55:07;100365.47;;;16.30;71.97
30708;BME280;17458;48.958;8.284;2022-08-21T02:57:52;100372.59;;;16.30;71.98
30708;BME280;17458;48.958;8.284;2022-08-21T03:00:37;100375.59;;;16.41;71.78
30708;BME280;17458;48.958;8.284;2022-08-21T03:03:21;100364.69;;;16.35;71.58
30708;BME280;17458;48.958;8.284;2022-08-21T03:06:07;100371.09;;;16.40;71.62
30708;BME280;17458;48.958;8.284;2022-08-21T03:08:52;100371.88;;;16.36;71.50
30708;BME280;17458;48.958;8.284;2022-08-21T03:11:35;100378.94;;;16.34;71.70
30708;BME280;17458;48.958;8.284;2022-08-21T03:14:20;100377.94;;;16.30;71.79
30708;BME280;17458;48.958;8.284;2022-08-21T03:17:05;100371.44;;;16.20;71.82
30708;BME280;17458;48.958;8.284;2022-08-21T03:19:49;100378.47;;;16.17;72.20
30708;BME280;17458;48.958;8.284;2022-08-21T03:22:34;100376.56;;;16.11;72.16
30708;BME280;17458;48.958;8.284;2022-08-21T03:25:20;100372.75;;;16.03;72.27
30708;BME280;17458;48.958;8.284;2022-08-21T03:28:07;100371.78;;;16.01;72.65
30708;BME280;17458;48.958;8.284;2022-08-21T03:30:52;100370.88;;;15.99;72.56
30708;BME280;17458;48.958;8.284;2022-08-21T03:33:36;100383.31;;;15.97;72.70
30708;BME280;17458;48.958;8.284;2022-08-21T03:36:20;100371.72;;;15.98;72.74
30708;BME280;17458;48.958;8.284;2022-08-21T03:39:04;100371.72;;;15.98;72.69
30708;BME280;17458;48.958;8.284;2022-08-21T03:41:49;100373.34;;;15.93;72.71
30708;BME280;17458;48.958;8.284;2022-08-21T03:44:33;100370.66;;;15.93;72.96
30708;BME280;17458;48.958;8.284;2022-08-21T03:47:18;100374.94;;;15.86;73.31
30708;BME280;17458;48.958;8.284;2022-08-21T03:50:03;100374.06;;;15.86;73.26
30708;BME280;17458;48.958;8.284;2022-08-21T03:52:49;100375.69;;;15.81;73.55
30708;BME280;17458;48.958;8.284;2022-08-21T03:55:33;100385.19;;;15.70;74.24
30708;BME280;17458;48.958;8.284;2022-08-21T03:58:19;100377.09;;;15.68;74.11
30708;BME280;17458;48.958;8.284;2022-08-21T04:01:05;100385.13;;;15.68;74.13
30708;BME280;17458;48.958;8.284;2022-08-21T04:03:49;100378.91;;;15.69;74.04
30708;BME280;17458;48.958;8.284;2022-08-21T04:06:33;100384.16;;;15.66;73.84
30708;BME280;17458;48.958;8.284;2022-08-21T04:09:18;100389.53;;;15.66;73.82
30708;BME280;17458;48.958;8.284;2022-08-21T04:12:02;100390.28;;;15.62;73.96
30708;BME280;17458;48.958;8.284;2022-08-21T04:14:49;100394.63;;;15.58;73.96
30708;BME280;17458;48.958;8.284;2022-08-21T04:17:35;100398.16;;;15.56;74.01
30708;BME280;17458;48.958;8.284;2022-08-21T04:20:20;100393.56;;;15.53;74.14
30708;BME280;17458;48.958;8.284;2022-08-21T04:23:05;100389.00;;;15.51;74.01
30708;BME280;17458;48.958;8.284;2022-08-21T04:25:50;100408.50;;;15.47;74.30
30708;BME280;17458;48.958;8.284;2022-08-21T04:28:34;100402.13;;;15.42;74.06
30708;BME280;17458;48.958;8.284;2022-08-21T04:31:18;100404.84;;;15.43;74.10
30708;BME280;17458;48.958;8.284;2022-08-21T04:34:03;100406.56;;;15.41;74.03
30708;BME280;17458;48.958;8.284;2022-08-21T04:36:48;100410.00;;;15.37;73.98
30708;BME280;17458;48.958;8.284;2022-08-21T04:39:32;100416.47;;;15.44;74.17
30708;BME280;17458;48.958;8.284;2022-08-21T04:42:16;100418.25;;;15.45;74.51
30708;BME280;17458;48.958;8.284;2022-08-21T04:45:00;100424.78;;;15.53;74.36
30708;BME280;17458;48.958;8.284;2022-08-21T04:47:44;100427.63;;;15.57;74.11
30708;BME280;17458;48.958;8.284;2022-08-21T04:53:44;100422.31;;;15.59;73.63
30708;BME280;17458;48.958;8.284;2022-08-21T04:56:34;100432.56;;;15.74;73.95
30708;BME280;17458;48.958;8.284;2022-08-21T04:59:23;100426.16;;;15.97;73.35
30708;BME280;17458;48.958;8.284;2022-08-21T05:02:09;100431.31;;;16.21;71.84
30708;BME280;17458;48.958;8.284;2022-08-21T05:04:54;100441.31;;;16.59;70.24
30708;BME280;17458;48.958;8.284;2022-08-21T05:07:38;100448.28;;;16.86;69.07
30708;BME280;17458;48.958;8.284;2022-08-21T05:10:22;100445.56;;;17.19;68.08
30708;BME280;17458;48.958;8.284;2022-08-21T05:13:06;100445.63;;;17.20;67.87
30708;BME280;17458;48.958;8.284;2022-08-21T05:15:50;100444.47;;;17.47;66.45
30708;BME280;17458;48.958;8.284;2022-08-21T05:18:34;100453.63;;;18.36;63.75
30708;BME280;17458;48.958;8.284;2022-08-21T05:21:18;100459.03;;;18.36;62.35
30708;BME280;17458;48.958;8.284;2022-08-21T05:24:03;100460.16;;;18.95;61.50
30708;BME280;17458;48.958;8.284;2022-08-21T05:26:47;100459.06;;;19.35;60.06
30708;BME280;17458;48.958;8.284;2022-08-21T05:29:31;100458.72;;;19.68;58.53
30708;BME280;17458;48.958;8.284;2022-08-21T05:32:15;100456.34;;;19.90;57.86
30708;BME280;17458;48.958;8.284;2022-08-21T05:34:59;100455.25;;;20.42;56.32
30708;BME280;17458;48.958;8.284;2022-08-21T05:37:43;100459.28;;;20.06;57.42
30708;BME280;17458;48.958;8.284;2022-08-21T05:40:28;100455.22;;;20.40;56.89
30708;BME280;17458;48.958;8.284;2022-08-21T05:43:13;100449.19;;;20.66;55.48
30708;BME280;17458;48.958;8.284;2022-08-21T05:45:58;100447.28;;;20.54;56.21
30708;BME280;17458;48.958;8.284;2022-08-21T05:48:42;100460.38;;;20.24;56.68
30708;BME280;17458;48.958;8.284;2022-08-21T05:51:26;100450.53;;;20.27;57.47
30708;BME280;17458;48.958;8.284;2022-08-21T05:54:10;100452.16;;;20.13;58.21
30708;BME280;17458;48.958;8.284;2022-08-21T05:56:55;100454.25;;;19.70;59.08
30708;BME280;17458;48.958;8.284;2022-08-21T05:59:40;100454.88;;;19.53;59.82
30708;BME280;17458;48.958;8.284;2022-08-21T06:02:23;100454.63;;;19.98;58.59
30708;BME280;17458;48.958;8.284;2022-08-21T06:05:08;100452.94;;;20.04;59.27
30708;BME280;17458;48.958;8.284;2022-08-21T06:07:51;100456.91;;;20.34;58.61
30708;BME280;17458;48.958;8.284;2022-08-21T06:10:36;100457.88;;;20.37;58.20
30708;BME280;17458;48.958;8.284;2022-08-21T06:13:21;100466.00;;;20.40;57.64
30708;BME280;17458;48.958;8.284;2022-08-21T06:16:13;100459.81;;;20.50;57.45
30708;BME280;17458;48.958;8.284;2022-08-21T06:18:57;100461.16;;;20.15;58.39
30708;BME280;17458;48.958;8.284;2022-08-21T06:21:41;100466.78;;;20.32;57.97
30708;BME280;17458;48.958;8.284;2022-08-21T06:24:26;100463.34;;;20.43;58.62
30708;BME280;17458;48.958;8.284;2022-08-21T06:27:10;100465.50;;;20.02;58.83
30708;BME280;17458;48.958;8.284;2022-08-21T06:29:54;100471.19;;;20.27;58.93
30708;BME280;17458;48.958;8.284;2022-08-21T06:32:41;100468.94;;;20.59;58.16
30708;BME280;17458;48.958;8.284;2022-08-21T06:35:25;100463.72;;;20.78;57.62
30708;BME280;17458;48.958;8.284;2022-08-21T06:38:10;100466.25;;;20.60;57.62
30708;BME280;17458;48.958;8.284;2022-08-21T06:40:54;100466.44;;;20.78;57.50
30708;BME280;17458;48.958;8.284;2022-08-21T06:43:38;100465.81;;;21.07;56.23
30708;BME280;17458;48.958;8.284;2022-08-21T06:46:24;100469.13;;;20.77;57.08
30708;BME280;17458;48.958;8.284;2022-08-21T06:49:08;100468.06;;;20.61;57.78
30708;BME280;17458;48.958;8.284;2022-08-21T06:51:52;100461.28;;;21.06;56.53
30708;BME280;17458;48.958;8.284;2022-08-21T06:54:36;100465.31;;;21.49;55.43
30708;BME280;17458;48.958;8.284;2022-08-21T06:57:20;100477.00;;;21.48;55.26
30708;BME280;17458;48.958;8.284;2022-08-21T07:00:06;100464.44;;;21.53;54.76
30708;BME280;17458;48.958;8.284;2022-08-21T07:02:50;100470.09;;;21.88;53.83
30708;BME280;17458;48.958;8.284;2022-08-21T07:05:34;100471.19;;;22.17;54.45
30708;BME280;17458;48.958;8.284;2022-08-21T07:08:19;100473.69;;;21.85;54.14
30708;BME280;17458;48.958;8.284;2022-08-21T07:11:12;100475.69;;;22.21;53.37
30708;BME280;17458;48.958;8.284;2022-08-21T07:13:58;100466.72;;;22.33;53.89
30708;BME280;17458;48.958;8.284;2022-08-21T07:16:42;100470.53;;;22.78;53.26
30708;BME280;17458;48.958;8.284;2022-08-21T07:19:26;100465.13;;;22.88;52.92
30708;BME280;17458;48.958;8.284;2022-08-21T07:22:10;100471.38;;;22.69;51.93
30708;BME280;17458;48.958;8.284;2022-08-21T07:24:54;100471.44;;;22.92;52.84
30708;BME280;17458;48.958;8.284;2022-08-21T07:27:39;100472.22;;;22.44;53.78
30708;BME280;17458;48.958;8.284;2022-08-21T07:30:23;100456.94;;;22.75;53.04
30708;BME280;17458;48.958;8.284;2022-08-21T07:33:07;100459.75;;;23.10;52.38
30708;BME280;17458;48.958;8.284;2022-08-21T07:35:52;100457.94;;;23.22;51.85
30708;BME280;17458;48.958;8.284;2022-08-21T07:38:36;100465.19;;;23.42;51.57
30708;BME280;17458;48.958;8.284;2022-08-21T07:41:23;100471.50;;;23.12;51.67
30708;BME280;17458;48.958;8.284;2022-08-21T07:44:07;100459.72;;;23.92;50.51
30708;BME280;17458;48.958;8.284;2022-08-21T07:46:51;100466.91;;;24.02;50.53
30708;BME280;17458;48.958;8.284;2022-08-21T07:49:35;100461.56;;;23.43;51.02
30708;BME280;17458;48.958;8.284;2022-08-21T07:52:19;100462.50;;;23.55;51.40
30708;BME280;17458;48.958;8.284;2022-08-21T07:55:04;100470.50;;;24.09;50.41
30708;BME280;17458;48.958;8.284;2022-08-21T07:57:48;100466.84;;;24.35;49.67
30708;BME280;17458;48.958;8.284;2022-08-21T08:00:33;100468.66;;;24.18;49.34
30708;BME280;17458;48.958;8.284;2022-08-21T08:03:17;100461.28;;;24.58;48.97
30708;BME280;17458;48.958;8.284;2022-08-21T08:06:01;100468.59;;;24.44;49.74
30708;BME280;17458;48.958;8.284;2022-08-21T08:08:48;100469.53;;;24.34;49.18
30708;BME280;17458;48.958;8.284;2022-08-21T08:11:32;100460.28;;;24.78;48.28
30708;BME280;17458;48.958;8.284;2022-08-21T08:14:17;100464.97;;;24.47;48.83
30708;BME280;17458;48.958;8.284;2022-08-21T08:17:01;100455.75;;;24.75;48.86
30708;BME280;17458;48.958;8.284;2022-08-21T08:19:46;100445.72;;;24.94;47.22
30708;BME280;17458;48.958;8.284;2022-08-21T08:22:30;100456.38;;;25.24;47.94
30708;BME280;17458;48.958;8.284;2022-08-21T08:25:14;100452.66;;;25.34;47.85
30708;BME280;17458;48.958;8.284;2022-08-21T08:27:58;100440.09;;;25.17;46.44
30708;BME280;17458;48.958;8.284;2022-08-21T08:30:46;100444.53;;;25.28;45.79
30708;BME280;17458;48.958;8.284;2022-08-21T08:33:30;100452.53;;;25.47;45.41
30708;BME280;17458;48.958;8.284;2022-08-21T08:36:16;100446.22;;;25.43;46.74
30708;BME280;17458;48.958;8.284;2022-08-21T08:39:03;100442.56;;;25.47;47.37
30708;BME280;17458;48.958;8.284;2022-08-21T08:41:48;100429.84;;;25.52;46.77
30708;BME280;17458;48.958;8.284;2022-08-21T08:44:45;100432.38;;;25.72;47.11
30708;BME280;17458;48.958;8.284;2022-08-21T08:47:32;100433.97;;;25.91;45.40
30708;BME280;17458;48.958;8.284;2022-08-21T08:50:24;100438.03;;;26.33;43.49
30708;BME280;17458;48.958;8.284;2022-08-21T08:53:17;100428.63;;;26.57;43.66
30708;BME280;17458;48.958;8.284;2022-08-21T08:56:03;100422.59;;;26.35;45.16
30708;BME280;17458;48.958;8.284;2022-08-21T08:58:50;100423.22;;;25.81;44.50
30708;BME280;17458;48.958;8.284;2022-08-21T09:01:36;100419.91;;;26.32;44.89
30708;BME280;17458;48.958;8.284;2022-08-21T09:04:29;100413.84;;;26.75;41.77
30708;BME280;17458;48.958;8.284;2022-08-21T09:07:28;100409.78;;;26.40;42.78
30708;BME280;17458;48.958;8.284;2022-08-21T09:10:30;100409.72;;;26.46;42.55
30708;BME280;17458;48.958;8.284;2022-08-21T09:16:46;100394.38;;;26.39;43.06
30708;BME280;17458;48.958;8.284;2022-08-21T09:26:23;100380.28;;;26.71;41.66
30708;BME280;17458;48.958;8.284;2022-08-21T09:29:10;100381.31;;;26.66;41.50
30708;BME280;17458;48.958;8.284;2022-08-21T09:31:55;100372.31;;;26.59;41.48
30708;BME280;17458;48.958;8.284;2022-08-21T09:34:39;100374.38;;;26.42;41.67
30708;BME280;17458;48.958;8.284;2022-08-21T09:37:24;100375.28;;;27.04;41.00
30708;BME280;17458;48.958;8.284;2022-08-21T09:40:25;100363.94;;;27.27;40.76
30708;BME280;17458;48.958;8.284;2022-08-21T09:46:10;100373.13;;;27.23;40.54
30708;BME280;17458;48.958;8.284;2022-08-21T09:48:58;100370.59;;;27.64;41.38
30708;BME280;17458;48.958;8.284;2022-08-21T09:51:50;100371.09;;;27.83;39.41
30708;BME280;17458;48.958;8.284;2022-08-21T09:54:38;100371.25;;;27.75;39.71
30708;BME280;17458;48.958;8.284;2022-08-21T09:57:29;100369.53;;;27.70;39.00
30708;BME280;17458;48.958;8.284;2022-08-21T10:00:27;100376.53;;;27.84;39.17
30708;BME280;17458;48.958;8.284;2022-08-21T10:03:20;100374.72;;;28.28;37.99
30708;BME280;17458;48.958;8.284;2022-08-21T10:06:07;100366.91;;;28.08;37.46
30708;BME280;17458;48.958;8.284;2022-08-21T10:09:04;100366.88;;;28.53;37.08
30708;BME280;17458;48.958;8.284;2022-08-21T10:11:59;100362.06;;;28.24;36.70
30708;BME280;17458;48.958;8.284;2022-08-21T10:18:23;100353.72;;;27.87;38.10
30708;BME280;17458;48.958;8.284;2022-08-21T10:21:30;100352.94;;;28.25;38.87
30708;BME280;17458;48.958;8.284;2022-08-21T10:24:32;100351.97;;;28.28;36.89
30708;BME280;17458;48.958;8.284;2022-08-21T10:30:36;100351.66;;;28.41;36.67
30708;BME280;17458;48.958;8.284;2022-08-21T10:39:33;100335.22;;;28.01;37.40
30708;BME280;17458;48.958;8.284;2022-08-21T10:45:11;100326.06;;;28.05;36.01
30708;BME280;17458;48.958;8.284;2022-08-21T10:48:02;100330.34;;;28.18;36.61
30708;BME280;17458;48.958;8.284;2022-08-21T10:50:54;100329.75;;;28.44;36.55
30708;BME280;17458;48.958;8.284;2022-08-21T10:53:59;100336.13;;;28.43;35.62
30708;BME280;17458;48.958;8.284;2022-08-21T10:56:47;100335.13;;;28.49;37.13
30708;BME280;17458;48.958;8.284;2022-08-21T10:59:42;100330.47;;;28.91;34.03
30708;BME280;17458;48.958;8.284;2022-08-21T11:02:33;100324.78;;;28.99;35.13
30708;BME280;17458;48.958;8.284;2022-08-21T11:11:12;100318.72;;;28.86;34.30
30708;BME280;17458;48.958;8.284;2022-08-21T11:14:04;100312.88;;;29.01;32.31
30708;BME280;17458;48.958;8.284;2022-08-21T11:16:57;100300.66;;;28.80;32.69
30708;BME280;17458;48.958;8.284;2022-08-21T11:19:54;100307.41;;;29.01;32.97
30708;BME280;17458;48.958;8.284;2022-08-21T11:23:22;100307.16;;;28.75;33.71
30708;BME280;17458;48.958;8.284;2022-08-21T11:26:13;100299.66;;;29.18;33.71
30708;BME280;17458;48.958;8.284;2022-08-21T11:29:23;100303.47;;;29.47;33.01
30708;BME280;17458;48.958;8.284;2022-08-21T11:44:11;100282.91;;;29.63;32.15
30708;BME280;17458;48.958;8.284;2022-08-21T11:47:14;100285.06;;;29.83;31.58
30708;BME280;17458;48.958;8.284;2022-08-21T11:50:16;100285.97;;;29.52;32.32
30708;BME280;17458;48.958;8.284;2022-08-21T11:56:33;100277.19;;;30.03;31.13
30708;BME280;17458;48.958;8.284;2022-08-21T11:59:23;100271.63;;;30.05;31.89
30708;BME280;17458;48.958;8.284;2022-08-21T12:02:15;100268.81;;;30.08;32.81
30708;BME280;17458;48.958;8.284;2022-08-21T12:05:31;100270.06;;;29.98;31.78
30708;BME280;17458;48.958;8.284;2022-08-21T12:16:50;100256.97;;;30.07;31.52
30708;BME280;17458;48.958;8.284;2022-08-21T12:19:34;100257.91;;;30.34;31.37
30708;BME280;17458;48.958;8.284;2022-08-21T12:22:19;100249.19;;;29.92;31.13
30708;BME280;17458;48.958;8.284;2022-08-21T12:25:07;100250.78;;;29.37;31.92
30708;BME280;17458;48.958;8.284;2022-08-21T12:28:03;100248.25;;;29.31;33.05
30708;BME280;17458;48.958;8.284;2022-08-21T12:30:50;100256.25;;;29.37;31.94
30708;BME280;17458;48.958;8.284;2022-08-21T12:33:39;100247.19;;;29.68;31.91
30708;BME280;17458;48.958;8.284;2022-08-21T12:36:56;100245.72;;;29.56;32.13
30708;BME280;17458;48.958;8.284;2022-08-21T12:39:44;100245.69;;;29.57;31.64
30708;BME280;17458;48.958;8.284;2022-08-21T12:42:38;100236.59;;;29.86;31.95
30708;BME280;17458;48.958;8.284;2022-08-21T12:45:34;100241.81;;;29.65;31.61
30708;BME280;17458;48.958;8.284;2022-08-21T12:48:31;100234.25;;;29.74;32.19
30708;BME280;17458;48.958;8.284;2022-08-21T12:51:18;100240.66;;;29.73;32.43
30708;BME280;17458;48.958;8.284;2022-08-21T12:54:06;100234.00;;;29.51;31.85
30708;BME280;17458;48.958;8.284;2022-08-21T12:57:02;100238.22;;;29.92;31.51
30708;BME280;17458;48.958;8.284;2022-08-21T12:59:59;100243.41;;;29.73;31.80
30708;BME280;17458;48.958;8.284;2022-08-21T13:02:47;100237.53;;;29.22;33.50
30708;BME280;17458;48.958;8.284;2022-08-21T13:05:35;100235.19;;;29.73;31.85
30708;BME280;17458;48.958;8.284;2022-08-21T13:08:22;100223.84;;;29.85;31.93
30708;BME280;17458;48.958;8.284;2022-08-21T13:11:09;100223.66;;;30.21;31.88
30708;BME280;17458;48.958;8.284;2022-08-21T13:13:54;100227.06;;;30.29;30.65
30708;BME280;17458;48.958;8.284;2022-08-21T13:16:38;100219.69;;;30.31;30.91
30708;BME280;17458;48.958;8.284;2022-08-21T13:19:23;100218.06;;;30.52;30.43
30708;BME280;17458;48.958;8.284;2022-08-21T13:22:14;100223.19;;;30.62;30.33
30708;BME280;17458;48.958;8.284;2022-08-21T13:24:59;100219.59;;;30.05;31.11
30708;BME280;17458;48.958;8.284;2022-08-21T13:27:55;100214.13;;;30.05;30.65
30708;BME280;17458;48.958;8.284;2022-08-21T13:30:44;100213.50;;;30.24;30.51
30708;BME280;17458;48.958;8.284;2022-08-21T13:33:30;100214.44;;;30.23;30.17
30708;BME280;17458;48.958;8.284;2022-08-21T13:36:21;100204.97;;;30.06;30.64
30708;BME280;17458;48.958;8.284;2022-08-21T13:39:11;100199.25;;;30.13;30.40
30708;BME280;17458;48.958;8.284;2022-08-21T13:41:58;100207.16;;;30.50;30.21
30708;BME280;17458;48.958;8.284;2022-08-21T13:44:45;100208.50;;;30.09;29.82
30708;BME280;17458;48.958;8.284;2022-08-21T13:47:30;100200.19;;;30.68;29.65
30708;BME280;17458;48.958;8.284;2022-08-21T13:50:16;100201.63;;;30.52;30.01
30708;BME280;17458;48.958;8.284;2022-08-21T13:53:05;100192.81;;;30.42;29.97
30708;BME280;17458;48.958;8.284;2022-08-21T13:55:50;100186.19;;;30.21;29.63
30708;BME280;17458;48.958;8.284;2022-08-21T13:58:46;100187.72;;;30.04;29.56
30708;BME280;17458;48.958;8.284;2022-08-21T14:04:23;100181.53;;;30.25;27.86
30708;BME280;17458;48.958;8.284;2022-08-21T14:07:20;100184.41;;;30.20;28.07
30708;BME280;17458;48.958;8.284;2022-08-21T14:10:20;100177.09;;;30.47;27.28
30708;BME280;17458;48.958;8.284;2022-08-21T14:13:06;100178.84;;;30.76;27.67
30708;BME280;17458;48.958;8.284;2022-08-21T14:15:57;100173.38;;;30.76;26.94
30708;BME280;17458;48.958;8.284;2022-08-21T14:19:39;100170.03;;;30.68;28.16
30708;BME280;17458;48.958;8.284;2022-08-21T14:21:57;100165.38;;;30.44;28.33
30708;BME280;17458;48.958;8.284;2022-08-21T14:24:41;100173.13;;;30.31;27.88
30708;BME280;17458;48.958;8.284;2022-08-21T14:27:25;100173.75;;;30.39;28.84
30708;BME280;17458;48.958;8.284;2022-08-21T14:30:17;100164.44;;;30.45;29.04
30708;BME280;17458;48.958;8.284;2022-08-21T14:33:04;100162.41;;;30.76;28.24
30708;BME280;17458;48.958;8.284;2022-08-21T14:35:51;100163.50;;;30.72;27.59
30708;BME280;17458;48.958;8.284;2022-08-21T14:38:38;100158.28;;;30.37;28.63
30708;BME280;17458;48.958;8.284;2022-08-21T14:41:25;100155.63;;;30.61;27.72
30708;BME280;17458;48.958;8.284;2022-08-21T14:44:11;100154.13;;;30.78;27.73
30708;BME280;17458;48.958;8.284;2022-08-21T14:46:55;100153.09;;;30.29;29.12
30708;BME280;17458;48.958;8.284;2022-08-21T14:49:39;100145.91;;;30.51;29.20
30708;BME280;17458;48.958;8.284;2022-08-21T14:52:24;100141.72;;;30.67;27.97
30708;BME280;17458;48.958;8.284;2022-08-21T14:55:08;100135.22;;;30.44;28.04
30708;BME280;17458;48.958;8.284;2022-08-21T14:57:57;100136.06;;;30.97;28.41
30708;BME280;17458;48.958;8.284;2022-08-21T15:00:41;100139.66;;;30.99;29.25
30708;BME280;17458;48.958;8.284;2022-08-21T15:03:25;100149.38;;;31.32;29.11
30708;BME280;17458;48.958;8.284;2022-08-21T15:06:10;100134.75;;;31.07;28.07
30708;BME280;17458;48.958;8.284;2022-08-21T15:08:54;100135.13;;;30.73;27.96
30708;BME280;17458;48.958;8.284;2022-08-21T15:11:39;100122.91;;;30.57;27.29
30708;BME280;17458;48.958;8.284;2022-08-21T15:14:28;100122.94;;;30.29;28.26
30708;BME280;17458;48.958;8.284;2022-08-21T15:17:12;100123.56;;;30.37;27.80
30708;BME280;17458;48.958;8.284;2022-08-21T15:19:57;100132.00;;;30.84;27.39
30708;BME280;17458;48.958;8.284;2022-08-21T15:22:41;100127.75;;;30.47;27.41
30708;BME280;17458;48.958;8.284;2022-08-21T15:25:25;100123.09;;;30.24;26.79
30708;BME280;17458;48.958;8.284;2022-08-21T15:28:10;100128.66;;;30.21;27.50
30708;BME280;17458;48.958;8.284;2022-08-21T15:30:54;100127.91;;;30.44;27.39
30708;BME280;17458;48.958;8.284;2022-08-21T15:33:38;100120.41;;;30.49;28.04
30708;BME280;17458;48.958;8.284;2022-08-21T15:36:22;100121.56;;;30.42;27.65
30708;BME280;17458;48.958;8.284;2022-08-21T15:39:06;100120.94;;;30.60;28.25